Time;durP1;ratioP1;P1;durP2;ratioP2;P2;SDS_P1;SDS_P2;PMS_P1;PMS_P2;Temp;Humidity;BMP_temperature;BMP_pressure;BME280_temperature;BME280_humidity;BME280_pressure;Samples;Min_cycle;Max_cycle;Signal;HPM_P1;HPM_P2
2022/04/17 00:02:10;;;;;;;52.55;31.95;;;;;;;;;;5029874;28;20022;-60
2022/04/17 00:04:36;;;;;;;46.00;26.17;;;;;;;;;;5030756;28;20029;-62
2022/04/17 00:07:02;;;;;;;20.05;10.65;;;;;;;;;;5030735;28;20075;-61
2022/04/17 00:09:28;;;;;;;19.73;10.45;;;;;;;;;;5031298;28;20143;-62
2022/04/17 00:11:54;;;;;;;24.70;13.25;;;;;;;;;;5066105;22;20037;-63
2022/04/17 00:14:21;;;;;;;18.83;9.45;;;;;;;;;;5071055;28;20436;-63
2022/04/17 00:16:47;;;;;;;19.25;9.88;;;;;;;;;;5071388;28;20056;-63
2022/04/17 00:19:13;;;;;;;19.67;10.65;;;;;;;;;;5072522;28;20016;-63
2022/04/17 00:21:39;;;;;;;19.77;9.10;;;;;;;;;;5071293;28;20021;-63
2022/04/17 00:24:06;;;;;;;20.05;9.23;;;;;;;;;;5072431;28;20033;-64
2022/04/17 00:26:31;;;;;;;18.08;8.93;;;;;;;;;;5071410;28;20035;-63
2022/04/17 00:28:58;;;;;;;19.52;8.38;;;;;;;;;;5070725;28;20021;-63
2022/04/17 00:31:24;;;;;;;19.38;8.77;;;;;;;;;;5072270;28;20065;-61
2022/04/17 00:33:50;;;;;;;19.02;8.88;;;;;;;;;;5072731;28;20407;-63
2022/04/17 00:36:16;;;;;;;18.50;9.13;;;;;;;;;;5072197;28;20104;-64
2022/04/17 00:38:42;;;;;;;17.83;8.98;;;;;;;;;;5072412;28;20473;-62
2022/04/17 00:41:08;;;;;;;17.20;8.80;;;;;;;;;;5072222;28;20024;-62
2022/04/17 00:43:43;;;;;;;18.13;8.70;;;;;;;;;;5072301;28;20031;-64
2022/04/17 00:46:09;;;;;;;19.45;9.77;;;;;;;;;;5072129;28;20027;-64
2022/04/17 00:48:35;;;;;;;18.33;8.95;;;;;;;;;;5070663;28;20028;-64
2022/04/17 00:51:01;;;;;;;17.75;8.45;;;;;;;;;;5070538;28;20035;-64
2022/04/17 00:53:28;;;;;;;18.38;8.90;;;;;;;;;;5071009;28;20024;-64
2022/04/17 00:55:55;;;;;;;17.80;8.52;;;;;;;;;;5070780;28;20115;-61
2022/04/17 00:58:21;;;;;;;20.33;9.32;;;;;;;;;;5071138;28;20025;-64
2022/04/17 01:00:47;;;;;;;20.85;9.43;;;;;;;;;;5072022;28;20024;-65
2022/04/17 01:03:14;;;;;;;18.13;9.50;;;;;;;;;;5072189;28;20020;-64
2022/04/17 01:05:42;;;;;;;19.08;9.25;;;;;;;;;;5072091;28;20024;-62
2022/04/17 01:08:11;;;;;;;19.10;8.98;;;;;;;;;;5072591;28;20349;-63
2022/04/17 01:10:41;;;;;;;21.83;8.77;;;;;;;;;;5071888;28;20111;-64
2022/04/17 01:13:10;;;;;;;19.05;8.80;;;;;;;;;;5072044;28;20036;-62
2022/04/17 01:15:37;;;;;;;18.63;9.38;;;;;;;;;;5070435;28;20021;-63
2022/04/17 01:18:03;;;;;;;19.38;8.93;;;;;;;;;;5071837;28;20028;-64
2022/04/17 01:20:29;;;;;;;21.23;9.57;;;;;;;;;;5071742;28;20082;-65
2022/04/17 01:26:56;;;;;;;19.80;9.32;;;;;;;;;;5071911;28;20021;-64
2022/04/17 01:28:26;;;;;;;18.90;9.27;;;;;;;;;;5072013;28;20071;-65
2022/04/17 01:30:55;;;;;;;19.27;9.63;;;;;;;;;;5071120;28;20040;-66
2022/04/17 01:33:21;;;;;;;19.15;9.02;;;;;;;;;;5071790;28;20081;-63
2022/04/17 01:35:48;;;;;;;21.20;10.60;;;;;;;;;;5072090;28;20016;-65
2022/04/17 01:38:14;;;;;;;18.45;8.38;;;;;;;;;;5072272;28;20032;-64
2022/04/17 01:40:40;;;;;;;20.48;9.77;;;;;;;;;;5071898;28;20052;-62
2022/04/17 01:43:10;;;;;;;20.27;9.63;;;;;;;;;;5070659;28;20056;-64
2022/04/17 01:45:36;;;;;;;19.80;9.43;;;;;;;;;;5071496;28;20504;-65
2022/04/17 01:48:02;;;;;;;18.45;8.98;;;;;;;;;;5072035;28;20044;-64
2022/04/17 01:50:28;;;;;;;19.65;9.95;;;;;;;;;;5071280;28;20012;-63
2022/04/17 01:52:54;;;;;;;19.20;9.18;;;;;;;;;;5071526;28;20029;-64
2022/04/17 01:55:20;;;;;;;18.52;8.23;;;;;;;;;;5071230;28;20032;-64
2022/04/17 01:57:46;;;;;;;20.15;9.32;;;;;;;;;;5072112;28;20016;-65
2022/04/17 02:00:12;;;;;;;19.25;9.00;;;;;;;;;;5072364;28;20024;-62
2022/04/17 02:02:38;;;;;;;18.00;8.57;;;;;;;;;;5075295;28;20028;-63
2022/04/17 02:05:05;;;;;;;19.63;9.55;;;;;;;;;;5074831;28;20047;-64
2022/04/17 02:07:31;;;;;;;21.02;10.18;;;;;;;;;;5075382;28;20024;-62
2022/04/17 02:09:57;;;;;;;20.60;9.90;;;;;;;;;;5075009;28;20086;-63
2022/04/17 02:12:23;;;;;;;19.15;9.55;;;;;;;;;;5074916;28;20035;-64
2022/04/17 02:14:49;;;;;;;20.02;9.73;;;;;;;;;;5073227;28;20033;-64
2022/04/17 02:17:15;;;;;;;20.42;9.48;;;;;;;;;;5075360;28;20449;-64
2022/04/17 02:19:41;;;;;;;20.48;10.05;;;;;;;;;;5074568;28;20044;-63
2022/04/17 02:22:07;;;;;;;20.42;9.73;;;;;;;;;;5074874;28;20063;-65
2022/04/17 02:24:33;;;;;;;20.42;9.57;;;;;;;;;;5074646;28;20028;-62
2022/04/17 02:26:59;;;;;;;23.70;10.73;;;;;;;;;;5074897;28;20070;-65
2022/04/17 02:29:25;;;;;;;18.55;9.25;;;;;;;;;;5073281;28;20024;-64
2022/04/17 02:31:51;;;;;;;19.77;9.40;;;;;;;;;;5074843;28;20030;-65
2022/04/17 02:34:17;;;;;;;19.15;9.48;;;;;;;;;;5074284;28;20025;-65
2022/04/17 02:36:43;;;;;;;21.15;10.05;;;;;;;;;;5074677;28;20507;-65
2022/04/17 02:39:09;;;;;;;19.67;9.65;;;;;;;;;;5074299;28;20074;-61
2022/04/17 02:41:35;;;;;;;20.00;9.77;;;;;;;;;;5073681;28;20357;-64
2022/04/17 02:44:01;;;;;;;23.65;10.60;;;;;;;;;;5074416;28;20097;-65
2022/04/17 02:49:12;;;;;;;18.85;9.85;;;;;;;;;;5074031;28;20124;-64
2022/04/17 02:51:38;;;;;;;22.75;9.45;;;;;;;;;;5074517;28;20111;-64
2022/04/17 02:54:04;;;;;;;19.88;9.23;;;;;;;;;;5073934;28;20032;-64
2022/04/17 02:56:30;;;;;;;20.52;9.60;;;;;;;;;;5073046;28;20028;-63
2022/04/17 02:58:56;;;;;;;78.10;47.92;;;;;;;;;;5074320;28;20043;-64
2022/04/17 03:05:36;;;;;;;27.85;16.00;;;;;;;;;;5074283;28;20074;-64
2022/04/17 03:07:00;;;;;;;26.80;14.57;;;;;;;;;;5074093;28;20459;-64
2022/04/17 03:09:25;;;;;;;27.75;16.08;;;;;;;;;;5072461;28;20028;-64
2022/04/17 03:11:52;;;;;;;25.20;12.90;;;;;;;;;;5073905;28;20059;-64
2022/04/17 03:14:17;;;;;;;26.08;12.85;;;;;;;;;;5072150;28;20457;-64
2022/04/17 03:16:43;;;;;;;21.85;9.25;;;;;;;;;;5072739;28;20056;-63
2022/04/17 03:19:10;;;;;;;22.40;10.68;;;;;;;;;;5073627;28;20384;-63
2022/04/17 03:21:35;;;;;;;19.55;9.32;;;;;;;;;;5073898;28;20025;-64
2022/04/17 03:24:01;;;;;;;20.10;9.63;;;;;;;;;;5073535;28;20037;-65
2022/04/17 03:26:27;;;;;;;18.73;9.35;;;;;;;;;;5073903;28;20119;-65
2022/04/17 03:28:55;;;;;;;19.90;9.95;;;;;;;;;;5072126;28;20036;-64
2022/04/17 03:31:21;;;;;;;22.05;9.73;;;;;;;;;;5073464;28;20017;-63
2022/04/17 03:33:47;;;;;;;21.05;9.95;;;;;;;;;;5073212;28;20025;-62
2022/04/17 03:36:13;;;;;;;19.63;10.07;;;;;;;;;;5073186;28;20020;-62
2022/04/17 03:38:39;;;;;;;19.52;9.73;;;;;;;;;;5073821;28;20496;-58
2022/04/17 03:41:05;;;;;;;20.33;10.70;;;;;;;;;;5073438;28;20477;-59
2022/04/17 03:43:31;;;;;;;19.80;10.10;;;;;;;;;;5072637;28;20024;-62
2022/04/17 03:45:58;;;;;;;20.52;9.45;;;;;;;;;;5073418;28;20031;-62
2022/04/17 03:48:25;;;;;;;21.77;10.40;;;;;;;;;;5073686;28;20447;-63
2022/04/17 03:50:51;;;;;;;23.50;10.85;;;;;;;;;;5072150;28;20447;-64
2022/04/17 03:53:17;;;;;;;24.30;10.90;;;;;;;;;;5073490;28;20055;-63
2022/04/17 03:55:43;;;;;;;20.08;10.02;;;;;;;;;;5071587;28;20017;-65
2022/04/17 03:58:09;;;;;;;20.73;10.55;;;;;;;;;;5072175;28;20020;-64
2022/04/17 04:00:35;;;;;;;19.30;9.30;;;;;;;;;;5071521;28;20016;-64
2022/04/17 04:03:01;;;;;;;21.40;9.40;;;;;;;;;;5073213;28;20024;-65
2022/04/17 04:05:27;;;;;;;41.22;24.73;;;;;;;;;;5071612;28;20016;-63
2022/04/17 04:07:53;;;;;;;25.27;13.02;;;;;;;;;;5073121;28;20020;-62
2022/04/17 04:10:19;;;;;;;31.23;18.10;;;;;;;;;;5072657;28;20023;-63
2022/04/17 04:12:45;;;;;;;26.60;15.25;;;;;;;;;;5071539;28;20060;-63
2022/04/17 04:15:11;;;;;;;24.92;13.65;;;;;;;;;;5072723;28;20063;-64
2022/04/17 04:17:37;;;;;;;41.22;22.45;;;;;;;;;;5073037;28;20032;-62
2022/04/17 04:20:03;;;;;;;23.05;12.40;;;;;;;;;;5072626;28;20025;-61
2022/04/17 04:22:29;;;;;;;24.15;11.52;;;;;;;;;;5072241;28;20135;-64
2022/04/17 04:24:55;;;;;;;20.45;10.90;;;;;;;;;;5072660;28;20042;-64
2022/04/17 04:30:07;;;;;;;21.83;11.00;;;;;;;;;;5072524;28;20031;-64
2022/04/17 04:32:33;;;;;;;22.00;10.60;;;;;;;;;;5072717;28;20020;-64
2022/04/17 04:35:02;;;;;;;19.83;10.25;;;;;;;;;;5072237;28;20070;-64
2022/04/17 04:37:28;;;;;;;24.52;11.05;;;;;;;;;;5071609;28;20523;-64
2022/04/17 04:39:55;;;;;;;20.40;10.70;;;;;;;;;;5072389;28;20662;-65
2022/04/17 04:42:21;;;;;;;22.70;10.88;;;;;;;;;;5072817;28;20086;-65
2022/04/17 04:44:47;;;;;;;21.33;10.73;;;;;;;;;;5072518;28;20024;-65
2022/04/17 04:47:14;;;;;;;19.85;9.98;;;;;;;;;;5072929;28;20108;-61
2022/04/17 04:49:40;;;;;;;22.05;10.98;;;;;;;;;;5072088;28;20048;-63
2022/04/17 04:52:06;;;;;;;22.67;10.50;;;;;;;;;;5072458;28;20048;-63
2022/04/17 04:54:36;;;;;;;24.38;10.57;;;;;;;;;;5070883;28;20024;-63
2022/04/17 04:57:02;;;;;;;21.52;9.77;;;;;;;;;;5072676;28;20396;-64
2022/04/17 04:59:29;;;;;;;24.45;11.77;;;;;;;;;;5070990;28;20032;-64
2022/04/17 05:01:55;;;;;;;21.70;9.98;;;;;;;;;;5071252;28;20024;-65
2022/04/17 05:04:21;;;;;;;22.77;10.88;;;;;;;;;;5072136;28;20551;-64
2022/04/17 05:06:48;;;;;;;18.95;9.65;;;;;;;;;;5072592;28;20035;-63
2022/04/17 05:09:14;;;;;;;20.08;10.55;;;;;;;;;;5070282;28;20032;-65
2022/04/17 05:11:41;;;;;;;24.33;11.75;;;;;;;;;;5072215;28;20448;-63
2022/04/17 05:14:09;;;;;;;21.33;10.70;;;;;;;;;;5071828;28;20020;-64
2022/04/17 05:16:36;;;;;;;24.90;10.95;;;;;;;;;;5072384;28;20028;-64
2022/04/17 05:19:21;;;;;;;21.30;10.82;;;;;;;;;;5070432;28;20025;-64
2022/04/17 05:21:47;;;;;;;23.00;10.80;;;;;;;;;;5072269;28;20016;-65
2022/04/17 05:24:16;;;;;;;22.95;10.68;;;;;;;;;;5070450;28;20048;-64
2022/04/17 05:26:42;;;;;;;20.92;10.70;;;;;;;;;;5071902;28;20511;-64
2022/04/17 05:29:09;;;;;;;21.75;10.60;;;;;;;;;;5071421;28;20031;-64
2022/04/17 05:31:35;;;;;;;21.83;10.32;;;;;;;;;;5071876;28;20024;-65
2022/04/17 05:34:01;;;;;;;20.83;10.65;;;;;;;;;;5070394;28;20062;-67
2022/04/17 05:36:27;;;;;;;25.88;11.45;;;;;;;;;;5075003;28;20036;-62
2022/04/17 05:38:53;;;;;;;21.00;11.05;;;;;;;;;;5074344;28;20017;-63
2022/04/17 05:41:20;;;;;;;21.13;10.80;;;;;;;;;;5074631;28;20427;-65
2022/04/17 05:43:47;;;;;;;20.48;11.02;;;;;;;;;;5075916;28;20078;-65
2022/04/17 05:46:13;;;;;;;20.08;10.20;;;;;;;;;;5075771;28;20051;-60
2022/04/17 05:48:39;;;;;;;20.60;10.38;;;;;;;;;;5076447;28;20029;-63
2022/04/17 05:51:05;;;;;;;21.67;10.77;;;;;;;;;;5076338;28;20033;-61
2022/04/17 05:53:31;;;;;;;19.70;10.80;;;;;;;;;;5074682;28;20103;-63
2022/04/17 05:55:57;;;;;;;21.92;11.20;;;;;;;;;;5075268;28;20532;-63
2022/04/17 05:58:23;;;;;;;21.63;11.00;;;;;;;;;;5075402;28;20111;-61
2022/04/17 06:00:49;;;;;;;31.02;16.55;;;;;;;;;;5074204;28;20016;-62
2022/04/17 06:03:18;;;;;;;21.63;11.65;;;;;;;;;;5074296;28;20178;-65
2022/04/17 06:05:44;;;;;;;19.55;10.65;;;;;;;;;;5074974;28;20024;-64
2022/04/17 06:08:10;;;;;;;20.35;11.50;;;;;;;;;;5075199;28;20020;-64
2022/04/17 06:10:36;;;;;;;19.15;10.55;;;;;;;;;;5074861;28;20028;-65
2022/04/17 06:13:02;;;;;;;18.92;10.38;;;;;;;;;;5090377;22;20118;-64
2022/04/17 06:15:28;;;;;;;21.55;11.27;;;;;;;;;;5062512;28;20063;-63
2022/04/17 06:17:54;;;;;;;21.17;11.77;;;;;;;;;;5045450;28;20465;-64
2022/04/17 06:20:20;;;;;;;21.02;10.63;;;;;;;;;;5064506;28;20072;-64
2022/04/17 06:22:46;;;;;;;19.25;10.70;;;;;;;;;;5064414;28;20021;-64
2022/04/17 06:25:14;;;;;;;20.05;11.55;;;;;;;;;;5063868;28;20036;-64
2022/04/17 06:27:40;;;;;;;22.50;10.73;;;;;;;;;;5062574;28;20055;-62
2022/04/17 06:30:26;;;;;;;21.85;11.60;;;;;;;;;;5061941;28;20099;-64
2022/04/17 06:32:52;;;;;;;24.27;13.68;;;;;;;;;;5061853;28;20029;-64
2022/04/17 06:35:18;;;;;;;21.02;11.27;;;;;;;;;;5061735;28;20047;-64
2022/04/17 06:37:48;;;;;;;21.80;12.25;;;;;;;;;;5060939;28;20029;-63
2022/04/17 06:40:16;;;;;;;22.02;11.65;;;;;;;;;;5053650;28;20150;-62
2022/04/17 06:42:42;;;;;;;21.02;12.75;;;;;;;;;;5052880;28;20433;-63
2022/04/17 06:45:08;;;;;;;19.65;10.80;;;;;;;;;;5052626;28;20504;-63
2022/04/17 06:47:34;;;;;;;22.65;11.63;;;;;;;;;;5034531;28;20017;-63
2022/04/17 06:50:00;;;;;;;21.02;11.18;;;;;;;;;;5034778;28;20765;-63
2022/04/17 06:52:26;;;;;;;21.80;11.25;;;;;;;;;;5052691;28;20133;-63
2022/04/17 06:54:52;;;;;;;20.38;11.20;;;;;;;;;;5034638;28;20144;-64
2022/04/17 06:57:18;;;;;;;20.33;11.13;;;;;;;;;;5052648;28;20021;-61
2022/04/17 06:59:44;;;;;;;21.13;11.18;;;;;;;;;;5034552;28;20113;-63
2022/04/17 07:02:10;;;;;;;21.45;10.38;;;;;;;;;;5052680;28;20021;-61
2022/04/17 07:04:36;;;;;;;21.23;11.05;;;;;;;;;;5052470;28;20021;-63
2022/04/17 07:07:02;;;;;;;21.75;11.05;;;;;;;;;;5052697;28;20521;-63
2022/04/17 07:09:28;;;;;;;20.80;10.90;;;;;;;;;;5052152;28;20033;-63
2022/04/17 07:11:55;;;;;;;21.00;11.20;;;;;;;;;;5052280;28;20051;-63
2022/04/17 07:14:21;;;;;;;21.42;10.85;;;;;;;;;;5052214;28;20508;-64
2022/04/17 07:16:47;;;;;;;18.50;10.50;;;;;;;;;;5052765;28;20035;-64
2022/04/17 07:19:15;;;;;;;21.10;11.98;;;;;;;;;;5059859;28;20488;-62
2022/04/17 07:21:41;;;;;;;21.08;11.18;;;;;;;;;;5072396;28;20040;-57
2022/04/17 07:24:07;;;;;;;21.17;10.98;;;;;;;;;;5072235;28;20087;-63
2022/04/17 07:26:33;;;;;;;20.77;10.95;;;;;;;;;;5072211;28;20119;-62
2022/04/17 07:28:59;;;;;;;19.80;10.52;;;;;;;;;;5053831;28;20111;-63
2022/04/17 07:31:25;;;;;;;20.92;10.77;;;;;;;;;;5072281;28;20025;-63
2022/04/17 07:33:51;;;;;;;21.63;11.63;;;;;;;;;;5072190;28;20533;-58
2022/04/17 07:36:17;;;;;;;19.88;10.63;;;;;;;;;;5054088;28;20021;-64
2022/04/17 07:38:43;;;;;;;20.10;10.57;;;;;;;;;;5071962;28;20028;-63
2022/04/17 07:41:09;;;;;;;19.90;11.13;;;;;;;;;;5071723;28;20017;-63
2022/04/17 07:43:35;;;;;;;19.45;10.05;;;;;;;;;;5071878;28;20503;-63
2022/04/17 07:46:01;;;;;;;18.90;10.25;;;;;;;;;;5071602;28;20020;-64
2022/04/17 07:48:27;;;;;;;18.08;9.43;;;;;;;;;;5071951;28;20031;-63
2022/04/17 07:50:54;;;;;;;18.35;9.48;;;;;;;;;;5071345;28;20102;-62
2022/04/17 07:53:20;;;;;;;19.65;10.15;;;;;;;;;;5071653;28;20032;-63
2022/04/17 07:55:46;;;;;;;17.50;10.10;;;;;;;;;;5071344;28;20509;-62
2022/04/17 07:58:16;;;;;;;17.02;9.38;;;;;;;;;;5052921;28;20099;-64
2022/04/17 08:00:47;;;;;;;18.50;9.75;;;;;;;;;;5071357;28;20141;-63
2022/04/17 08:03:47;;;;;;;16.95;9.27;;;;;;;;;;5071540;28;20077;-61
2022/04/17 08:06:07;;;;;;;17.27;8.75;;;;;;;;;;5067194;28;20403;-63
2022/04/17 08:08:33;;;;;;;17.25;8.73;;;;;;;;;;5071529;28;20012;-62
2022/04/17 08:11:00;;;;;;;18.73;9.63;;;;;;;;;;5071144;28;20438;-61
2022/04/17 08:13:25;;;;;;;16.83;9.27;;;14.80;50.70;;;;;;5053264;28;20374;-63
2022/04/17 08:15:51;;;;;;;18.63;9.32;;;10.70;92.90;;;;;;5070989;28;20119;-61
2022/04/17 08:18:17;;;;;;;18.02;9.43;;;10.60;93.10;;;;;;5071210;28;20025;-65
2022/04/17 08:20:43;;;;;;;17.50;9.23;;;10.60;93.00;;;;;;5052743;28;20419;-66
2022/04/17 08:23:09;;;;;;;17.52;9.02;;;;;;;;;;5071346;28;20024;-66
2022/04/17 08:25:35;;;;;;;17.50;9.13;;;10.70;92.60;;;;;;5070726;28;20031;-65
2022/04/17 08:28:02;;;;;;;17.67;10.10;;;10.80;92.80;;;;;;5071206;28;20021;-66
2022/04/17 08:30:32;;;;;;;18.17;8.77;;;10.80;92.30;;;;;;5052736;28;20059;-65
2022/04/17 08:32:59;;;;;;;17.00;9.02;;;10.90;92.70;;;;;;5070920;28;20415;-65
2022/04/17 08:35:25;;;;;;;17.92;9.40;;;11.00;92.60;;;;;;5070492;28;20423;-63
2022/04/17 08:37:52;;;;;;;17.85;8.70;;;11.00;92.50;;;;;;4689943;28;10000383;-62
2022/04/17 08:40:18;;;;;;;18.33;9.63;;;11.00;93.50;;;;;;5055175;28;20052;-62
2022/04/17 08:42:44;;;;;;;18.58;9.20;;;11.20;93.30;;;;;;5057887;28;20048;-64
2022/04/17 08:45:12;;;;;;;18.10;9.15;;;11.20;93.00;;;;;;5040471;28;20047;-63
2022/04/17 08:47:39;;;;;;;18.13;9.07;;;11.30;93.00;;;;;;5058028;28;20024;-63
2022/04/17 08:50:09;;;;;;;17.75;9.23;;;11.30;92.40;;;;;;5056239;28;20029;-63
2022/04/17 08:52:35;;;;;;;17.98;9.25;;;11.40;93.50;;;;;;5040744;28;20385;-63
2022/04/17 08:55:02;;;;;;;18.15;9.68;;;11.50;93.00;;;;;;5055158;28;20040;-64
2022/04/17 08:57:28;;;;;;;17.15;9.40;;;11.60;92.70;;;;;;5057008;28;20020;-65
2022/04/17 08:59:53;;;;;;;17.90;9.50;;;11.70;92.30;;;;;;5066623;28;20054;-64
2022/04/17 09:02:20;;;;;;;17.38;9.40;;;11.70;92.30;;;;;;5067331;28;20033;-64
2022/04/17 09:04:46;;;;;;;17.20;9.65;;;11.80;92.30;;;;;;5067338;28;20052;-65
2022/04/17 09:07:13;;;;;;;17.05;9.13;;;11.90;92.00;;;;;;5067613;28;20036;-64
2022/04/17 09:09:52;;;;;;;18.17;9.70;;;;;;;;;;5066741;28;20025;-63
2022/04/17 09:12:19;;;;;;;18.55;9.32;;;;;;;;;;5052203;28;20037;-60
2022/04/17 09:14:46;;;;;;;19.65;9.98;;;;;;;;;;5046702;28;20104;-63
2022/04/17 09:17:12;;;;;;;17.85;9.65;;;;;;;;;;5047321;28;20028;-63
2022/04/17 09:19:38;;;;;;;19.70;9.73;;;;;;;;;;5050081;28;20025;-63
2022/04/17 09:22:09;;;;;;;17.75;10.93;;;11.90;92.20;;;;;;5064635;28;20066;-63
2022/04/17 09:24:39;;;;;;;17.08;8.80;;;12.60;90.10;;;;;;5067014;28;20027;-63
2022/04/17 09:27:06;;;;;;;17.95;9.20;;;12.60;89.20;;;;;;5049853;28;20381;-63
2022/04/17 09:29:35;;;;;;;18.23;10.02;;;12.70;88.70;;;;;;5049270;28;20025;-63
2022/04/17 09:32:01;;;;;;;16.98;9.80;;;12.80;88.20;;;;;;5046641;28;20054;-64
2022/04/17 09:34:28;;;;;;;16.55;9.13;;;12.90;88.10;;;;;;5041086;28;20025;-62
2022/04/17 09:37:00;;;;;;;18.25;9.77;;;12.90;88.50;;;;;;5047387;28;20036;-63
2022/04/17 09:39:33;;;;;;;17.65;9.80;;;;;;;;;;5046955;28;20022;-63
2022/04/17 09:42:00;;;;;;;19.42;10.52;;;;;;;;;;5047483;28;20028;-67
2022/04/17 09:44:35;;;;;;;21.63;12.43;;;;;;;;;;5030232;28;20029;-64
2022/04/17 09:47:01;;;;;;;17.45;10.38;;;;;;;;;;5048498;28;20067;-65
2022/04/17 09:49:27;;;;;;;18.88;10.55;;;;;;;;;;5029503;28;20022;-64
2022/04/17 09:52:09;;;;;;;17.95;9.98;;;;;;;;;;5054095;28;20017;-63
2022/04/17 09:54:35;;;;;;;18.48;9.80;;;;;;;;;;5042222;28;20110;-65
2022/04/17 09:57:01;;;;;;;17.10;9.90;;;;;;;;;;5034720;28;20029;-65
2022/04/17 09:59:28;;;;;;;18.02;9.38;;;;;;;;;;5049884;28;20048;-64
2022/04/17 10:01:54;;;;;;;18.70;10.15;;;;;;;;;;5067669;28;20097;-64
2022/04/17 10:04:21;;;;;;;17.80;10.27;;;;;;;;;;5066678;28;20051;-64
2022/04/17 10:06:48;;;;;;;18.25;9.75;;;;;;;;;;5048760;28;20074;-66
2022/04/17 10:09:14;;;;;;;19.27;9.73;;;;;;;;;;5048168;28;20052;-64
2022/04/17 10:11:41;;;;;;;18.25;10.45;;;;;;;;;;5047995;28;20048;-65
2022/04/17 10:14:07;;;;;;;18.40;10.20;;;;;;;;;;5029856;28;20380;-66
2022/04/17 10:16:34;;;;;;;20.88;10.35;;;;;;;;;;5030612;28;20039;-64
2022/04/17 10:19:00;;;;;;;17.33;9.43;;;;;;;;;;5048226;28;20032;-64
2022/04/17 10:21:29;;;;;;;18.15;9.80;;;;;;;;;;5049565;28;20044;-63
2022/04/17 10:24:00;;;;;;;17.55;9.77;;;;;;;;;;5052481;28;20047;-64
2022/04/17 10:26:28;;;;;;;18.35;10.07;;;13.00;86.90;;;;;;5052169;28;20485;-66
2022/04/17 10:28:57;;;;;;;18.92;10.38;;;14.90;77.20;;;;;;5051924;28;20576;-65
2022/04/17 10:31:26;;;;;;;18.63;9.65;;;14.70;74.60;;;;;;5051489;28;20017;-65
2022/04/17 10:34:01;;;;;;;16.88;9.27;;;14.20;73.30;;;;;;5051495;28;20632;-63
2022/04/17 10:36:44;;;;;;;16.23;9.07;;;14.30;70.30;;;;;;5050670;28;20418;-68
2022/04/17 10:39:22;;;;;;;31.80;23.90;;;14.80;71.30;;;;;;5051267;28;20045;-68
2022/04/17 10:41:49;;;;;;;17.27;9.32;;;15.00;69.50;;;;;;5036935;28;20033;-63
2022/04/17 10:44:16;;;;;;;16.50;9.60;;;14.90;65.20;;;;;;5040724;28;20082;-67
2022/04/17 10:46:46;;;;;;;16.40;9.00;;;15.10;65.10;;;;;;5064657;28;20049;-64
2022/04/17 10:49:12;;;;;;;18.35;9.80;;;15.30;64.10;;;;;;5043998;28;20425;-64
2022/04/17 10:51:38;;;;;;;18.98;10.82;;;15.30;64.20;;;;;;5061546;28;20033;-63
2022/04/17 10:54:13;;;;;;;20.60;9.98;;;15.40;65.60;;;;;;5061912;28;20481;-64
2022/04/17 10:56:57;;;;;;;17.25;8.88;;;15.40;66.80;;;;;;5053307;28;20031;-66
2022/04/17 10:59:34;;;;;;;17.52;9.85;;;15.70;64.50;;;;;;5052720;28;20021;-64
2022/04/17 11:02:00;;;;;;;20.58;9.95;;;15.80;66.00;;;;;;5034820;28;20457;-63
2022/04/17 11:04:39;;;;;;;17.42;9.55;;;15.80;64.50;;;;;;5052920;28;20052;-64
2022/04/17 11:07:05;;;;;;;16.25;9.05;;;16.00;62.70;;;;;;5052712;28;20040;-64
2022/04/17 11:09:54;;;;;;;16.67;9.20;;;15.90;64.20;;;;;;5052477;28;20021;-64
2022/04/17 11:12:27;;;;;;;17.15;9.43;;;16.40;63.50;;;;;;5033070;28;20037;-64
2022/04/17 11:15:02;;;;;;;17.25;9.50;;;17.70;62.30;;;;;;5034221;28;20029;-64
2022/04/17 11:17:32;;;;;;;17.65;10.10;;;18.20;60.60;;;;;;5052758;28;20052;-62
2022/04/17 11:20:00;;;;;;;19.17;11.57;;;19.10;61.10;;;;;;5034510;28;20374;-64
2022/04/17 11:22:37;;;;;;;17.37;9.40;;;20.00;59.40;;;;;;5052727;28;20021;-65
2022/04/17 11:25:15;;;;;;;20.02;10.75;;;20.60;58.10;;;;;;5052421;28;20032;-65
2022/04/17 11:27:46;;;;;;;18.33;9.93;;;21.10;56.80;;;;;;5052678;28;20029;-66
2022/04/17 11:30:17;;;;;;;17.88;10.52;;;21.50;55.60;;;;;;5051903;28;20189;-65
2022/04/17 11:32:43;;;;;;;17.65;10.30;;;22.10;54.40;;;;;;5052594;28;20021;-65
2022/04/17 11:35:11;;;;;;;16.02;10.18;;;22.50;53.40;;;;;;5051912;28;20495;-66
2022/04/17 11:37:36;;;;;;;20.23;10.98;;;23.00;52.60;;;;;;5052549;28;20028;-67
2022/04/17 11:40:13;;;;;;;20.45;11.75;;;23.40;51.20;;;;;;5051917;28;20029;-65
2022/04/17 11:42:47;;;;;;;18.20;11.25;;;23.40;50.50;;;;;;5052117;28;20038;-65
2022/04/17 11:45:15;;;;;;;17.70;11.15;;;22.70;49.30;;;;;;5051903;28;20413;-65
2022/04/17 11:47:42;;;;;;;17.02;10.43;;;23.40;49.80;;;;;;5052275;28;20025;-62
2022/04/17 11:50:09;;;;;;;18.13;11.00;;;23.30;49.50;;;;;;5033767;28;20040;-66
2022/04/17 11:52:36;;;;;;;17.50;11.10;;;23.00;48.00;;;;;;5052008;28;20033;-68
2022/04/17 11:55:01;;;;;;;17.92;9.93;;;22.80;49.60;;;;;;5051744;28;20025;-67
2022/04/17 11:57:27;;;;;;;17.50;10.43;;;23.40;49.30;;;;;;5052199;28;20047;-66
2022/04/17 11:59:54;;;;;;;16.40;10.63;;;24.10;48.20;;;;;;5033627;28;20122;-66
2022/04/17 12:02:23;;;;;;;18.77;11.17;;;24.30;47.20;;;;;;5051759;28;20457;-64
2022/04/17 12:04:55;;;;;;;16.85;11.13;;;25.00;47.00;;;;;;5051643;28;20082;-66
2022/04/17 12:07:22;;;;;;;17.45;11.38;;;25.10;46.20;;;;;;5033913;28;20044;-66
2022/04/17 12:09:48;;;;;;;17.43;11.43;;;24.30;47.30;;;;;;5051369;28;20443;-64
2022/04/17 12:12:18;;;;;;;16.50;10.23;;;23.10;47.40;;;;;;5057470;23;20049;-63
2022/04/17 12:14:46;;;;;;;16.33;10.68;;;23.60;46.30;;;;;;5052480;28;20037;-63
2022/04/17 12:17:13;;;;;;;16.55;10.95;;;24.30;45.90;;;;;;5052989;28;20028;-63
2022/04/17 12:19:47;;;;;;;16.63;10.38;;;24.80;45.60;;;;;;5052297;28;20029;-64
2022/04/17 12:22:14;;;;;;;16.55;10.43;;;25.50;43.90;;;;;;5034524;28;20064;-64
2022/04/17 12:24:45;;;;;;;16.45;11.07;;;25.70;44.30;;;;;;5034654;28;20021;-63
2022/04/17 12:27:14;;;;;;;18.00;11.85;;;25.60;43.60;;;;;;5052472;28;20070;-62
2022/04/17 12:29:41;;;;;;;16.38;10.60;;;25.20;41.90;;;;;;5033930;28;20032;-64
2022/04/17 12:32:17;;;;;;;15.65;9.80;;;25.00;43.00;;;;;;5052053;28;20056;-62
2022/04/17 12:34:46;;;;;;;16.55;10.38;;;25.80;42.10;;;;;;5051782;28;20025;-63
2022/04/17 12:37:30;;;;;;;15.52;9.55;;;25.60;40.60;;;;;;4730817;28;10000472;-62
2022/04/17 12:40:21;;;;;;;15.90;9.73;;;25.40;39.60;;;;;;5029214;28;20238;-63
2022/04/17 12:42:48;;;;;;;15.40;10.05;;;25.10;39.80;;;;;;5030778;28;20555;-63
2022/04/17 12:45:27;;;;;;;16.10;9.73;;;25.50;39.60;;;;;;5031452;28;20063;-63
2022/04/17 12:48:05;;;;;;;14.95;9.32;;;26.30;41.20;;;;;;5014876;28;20022;-64
2022/04/17 12:50:31;;;;;;;16.42;10.45;;;27.20;40.10;;;;;;5013999;28;20026;-64
2022/04/17 12:52:58;;;;;;;15.82;10.27;;;27.40;38.80;;;;;;5032302;28;20036;-62
2022/04/17 12:55:35;;;;;;;15.43;9.98;;;27.40;38.20;;;;;;5031709;28;20033;-63
2022/04/17 12:58:02;;;;;;;16.42;10.23;;;28.00;38.30;;;;;;5032138;28;20033;-62
2022/04/17 13:00:30;;;;;;;16.10;9.93;;;27.90;38.50;;;;;;5031678;28;20108;-62
2022/04/17 13:03:12;;;;;;;15.52;9.93;;;28.00;38.10;;;;;;5032313;28;20207;-62
2022/04/17 13:05:38;;;;;;;16.92;11.10;;;28.10;37.70;;;;;;5042188;28;20380;-63
2022/04/17 13:08:08;;;;;;;15.32;10.00;;;27.70;37.50;;;;;;5071873;28;20035;-62
2022/04/17 13:10:35;;;;;;;15.02;9.57;;;26.60;37.00;;;;;;5071526;28;20043;-63
2022/04/17 13:13:01;;;;;;;15.40;9.85;;;26.80;37.20;;;;;;5071610;28;20033;-64
2022/04/17 13:15:32;;;;;;;15.77;10.00;;;27.90;37.80;;;;;;5071129;28;20397;-62
2022/04/17 13:17:58;;;;;;;15.50;9.90;;;28.50;37.30;;;;;;5071619;28;20534;-63
2022/04/17 13:20:25;;;;;;;17.85;10.55;;;28.90;35.90;;;;;;5071246;28;20029;-62
2022/04/17 13:22:50;;;;;;;16.63;9.75;;;29.10;36.50;;;;;;5071544;28;20075;-62
2022/04/17 13:25:18;;;;;;;15.18;9.93;;;28.90;36.50;;;;;;5071293;28;20064;-61
2022/04/17 13:27:46;;;;;;;15.18;9.55;;;28.50;36.80;;;;;;5071843;28;20028;-61
2022/04/17 13:30:14;;;;;;;16.40;9.70;;;27.50;36.00;;;;;;5071674;28;20028;-61
2022/04/17 13:32:39;;;;;;;15.55;9.48;;;27.10;37.10;;;;;;5059308;28;20492;-61
2022/04/17 13:35:07;;;;;;;15.18;9.52;;;28.00;37.40;;;;;;5051292;28;20297;-61
2022/04/17 13:40:18;;;;;;;15.20;9.85;;;28.10;35.40;;;;;;5051183;28;20377;-62
2022/04/17 13:42:44;;;;;;;15.90;10.02;;;28.60;35.50;;;;;;5051527;28;20021;-63
2022/04/17 13:45:10;;;;;;;15.18;9.93;;;29.50;36.00;;;;;;5033621;28;20029;-61
2022/04/17 13:47:37;;;;;;;14.90;9.40;;;29.50;35.40;;;;;;5051459;28;20235;-62
2022/04/17 13:50:08;;;;;;;15.10;9.70;;;29.20;33.80;;;;;;5050859;28;20432;-62
2022/04/17 13:52:34;;;;;;;15.20;10.07;;;29.20;33.30;;;;;;5051518;28;20025;-62
2022/04/17 13:55:01;;;;;;;15.52;9.82;;;29.80;34.50;;;;;;5033056;28;20393;-62
2022/04/17 13:57:27;;;;;;;15.70;9.60;;;30.10;34.10;;;;;;5054087;28;20504;-61
2022/04/17 13:59:52;;;;;;;16.10;9.55;;;29.30;32.40;;;;;;5055121;28;20053;-60